Terminal Aerodrome Forecast
Issued by NWS

Home | Current Version | Previous Version | Text Only | Print | Product List | Glossary On
Versions: 1 2 3 4 5 6 7 8 9 10 11 12 13 14
000
FTUS45 KRIW 070528
TAFBPI
TAF
KBPI 070528Z 0706/0806 VRB05KT P6SM BKN080
     FM071100 VRB05KT P6SM VCFG SCT015 BKN080
      TEMPO 0711/0715 2SM BR BKN005
     FM071700 VRB05KT P6SM SCT030 BKN100
     FM072000 VRB10G20KT P6SM VCTS BKN080CB
     FM080200 VRB06KT P6SM VCSH BKN050=

USA.gov is the U.S. government's official web portal to all federal, state and local government web resources and services.